sensor_id;sensor_type;location;lat;lon;timestamp;P1;durP1;ratioP1;P2;durP2;ratioP2
9716;SDS011;4897;43.570;27.832;2023-05-07T00:02:22;5.65;;;2.88;;
9716;SDS011;4897;43.570;27.832;2023-05-07T00:04:50;4.30;;;2.83;;
9716;SDS011;4897;43.570;27.832;2023-05-07T00:07:17;5.20;;;3.05;;
9716;SDS011;4897;43.570;27.832;2023-05-07T00:09:44;6.72;;;3.10;;
9716;SDS011;4897;43.570;27.832;2023-05-07T00:12:11;5.32;;;2.70;;
9716;SDS011;4897;43.570;27.832;2023-05-07T00:14:38;4.55;;;2.67;;
9716;SDS011;4897;43.570;27.832;2023-05-07T00:17:07;3.78;;;2.58;;
9716;SDS011;4897;43.570;27.832;2023-05-07T00:19:33;6.00;;;2.58;;
9716;SDS011;4897;43.570;27.832;2023-05-07T00:22:00;5.55;;;2.97;;
9716;SDS011;4897;43.570;27.832;2023-05-07T00:24:27;6.10;;;2.78;;
9716;SDS011;4897;43.570;27.832;2023-05-07T00:26:54;4.60;;;2.88;;
9716;SDS011;4897;43.570;27.832;2023-05-07T00:29:23;5.60;;;3.00;;
9716;SDS011;4897;43.570;27.832;2023-05-07T00:31:50;6.22;;;2.90;;
9716;SDS011;4897;43.570;27.832;2023-05-07T00:34:20;6.35;;;2.78;;
9716;SDS011;4897;43.570;27.832;2023-05-07T00:36:47;5.68;;;2.88;;
9716;SDS011;4897;43.570;27.832;2023-05-07T00:39:14;6.53;;;2.92;;
9716;SDS011;4897;43.570;27.832;2023-05-07T00:41:41;4.53;;;3.03;;
9716;SDS011;4897;43.570;27.832;2023-05-07T00:44:08;4.45;;;2.92;;
9716;SDS011;4897;43.570;27.832;2023-05-07T00:46:34;5.47;;;2.60;;
9716;SDS011;4897;43.570;27.832;2023-05-07T00:49:01;4.72;;;3.03;;
9716;SDS011;4897;43.570;27.832;2023-05-07T00:51:30;4.70;;;2.97;;
9716;SDS011;4897;43.570;27.832;2023-05-07T00:53:57;7.40;;;2.40;;
9716;SDS011;4897;43.570;27.832;2023-05-07T00:56:24;4.13;;;2.70;;
9716;SDS011;4897;43.570;27.832;2023-05-07T00:58:51;5.53;;;3.00;;
9716;SDS011;4897;43.570;27.832;2023-05-07T01:01:19;10.25;;;2.90;;
9716;SDS011;4897;43.570;27.832;2023-05-07T01:03:46;4.40;;;2.58;;
9716;SDS011;4897;43.570;27.832;2023-05-07T01:06:13;5.55;;;2.60;;
9716;SDS011;4897;43.570;27.832;2023-05-07T01:08:43;3.10;;;2.60;;
9716;SDS011;4897;43.570;27.832;2023-05-07T01:11:11;4.57;;;2.38;;
9716;SDS011;4897;43.570;27.832;2023-05-07T01:13:38;7.43;;;2.42;;
9716;SDS011;4897;43.570;27.832;2023-05-07T01:16:06;5.75;;;2.92;;
9716;SDS011;4897;43.570;27.832;2023-05-07T01:18:35;4.63;;;3.22;;
9716;SDS011;4897;43.570;27.832;2023-05-07T01:21:03;3.25;;;2.42;;
9716;SDS011;4897;43.570;27.832;2023-05-07T01:23:33;6.47;;;2.90;;
9716;SDS011;4897;43.570;27.832;2023-05-07T01:26:00;4.60;;;2.50;;
9716;SDS011;4897;43.570;27.832;2023-05-07T01:28:27;6.10;;;2.70;;
9716;SDS011;4897;43.570;27.832;2023-05-07T01:30:55;4.57;;;2.45;;
9716;SDS011;4897;43.570;27.832;2023-05-07T01:33:28;6.07;;;2.90;;
9716;SDS011;4897;43.570;27.832;2023-05-07T01:35:57;4.22;;;2.60;;
9716;SDS011;4897;43.570;27.832;2023-05-07T01:38:27;3.30;;;2.30;;
9716;SDS011;4897;43.570;27.832;2023-05-07T01:40:56;4.05;;;2.72;;
9716;SDS011;4897;43.570;27.832;2023-05-07T01:43:23;3.65;;;2.45;;
9716;SDS011;4897;43.570;27.832;2023-05-07T01:45:51;3.10;;;2.42;;
9716;SDS011;4897;43.570;27.832;2023-05-07T01:48:19;5.93;;;2.40;;
9716;SDS011;4897;43.570;27.832;2023-05-07T01:50:46;5.78;;;2.35;;
9716;SDS011;4897;43.570;27.832;2023-05-07T01:53:14;4.25;;;2.80;;
9716;SDS011;4897;43.570;27.832;2023-05-07T01:55:41;8.93;;;2.75;;
9716;SDS011;4897;43.570;27.832;2023-05-07T01:58:09;5.22;;;2.97;;
9716;SDS011;4897;43.570;27.832;2023-05-07T02:00:36;3.70;;;2.67;;
9716;SDS011;4897;43.570;27.832;2023-05-07T02:03:03;3.97;;;2.28;;
9716;SDS011;4897;43.570;27.832;2023-05-07T02:05:30;3.50;;;2.55;;
9716;SDS011;4897;43.570;27.832;2023-05-07T02:07:57;3.30;;;2.50;;
9716;SDS011;4897;43.570;27.832;2023-05-07T02:10:24;4.68;;;2.78;;
9716;SDS011;4897;43.570;27.832;2023-05-07T02:12:51;8.05;;;2.70;;
9716;SDS011;4897;43.570;27.832;2023-05-07T02:15:19;8.60;;;2.83;;
9716;SDS011;4897;43.570;27.832;2023-05-07T02:20:28;5.05;;;2.70;;
9716;SDS011;4897;43.570;27.832;2023-05-07T02:22:55;7.22;;;3.40;;
9716;SDS011;4897;43.570;27.832;2023-05-07T02:25:22;6.70;;;3.25;;
9716;SDS011;4897;43.570;27.832;2023-05-07T02:27:49;6.32;;;3.50;;
9716;SDS011;4897;43.570;27.832;2023-05-07T02:30:16;4.28;;;2.67;;
9716;SDS011;4897;43.570;27.832;2023-05-07T02:32:46;7.03;;;2.63;;
9716;SDS011;4897;43.570;27.832;2023-05-07T02:35:13;6.40;;;2.80;;
9716;SDS011;4897;43.570;27.832;2023-05-07T02:37:39;4.15;;;2.58;;
9716;SDS011;4897;43.570;27.832;2023-05-07T02:40:07;4.65;;;2.80;;
9716;SDS011;4897;43.570;27.832;2023-05-07T02:42:35;7.35;;;3.20;;
9716;SDS011;4897;43.570;27.832;2023-05-07T02:45:01;8.98;;;2.80;;
9716;SDS011;4897;43.570;27.832;2023-05-07T02:47:30;6.85;;;3.42;;
9716;SDS011;4897;43.570;27.832;2023-05-07T02:49:57;5.32;;;2.75;;
9716;SDS011;4897;43.570;27.832;2023-05-07T02:52:24;5.00;;;2.92;;
9716;SDS011;4897;43.570;27.832;2023-05-07T02:54:50;5.63;;;2.72;;
9716;SDS011;4897;43.570;27.832;2023-05-07T02:57:17;3.80;;;2.53;;
9716;SDS011;4897;43.570;27.832;2023-05-07T02:59:44;5.93;;;2.90;;
9716;SDS011;4897;43.570;27.832;2023-05-07T03:02:11;5.30;;;2.63;;
9716;SDS011;4897;43.570;27.832;2023-05-07T03:04:39;4.60;;;2.65;;
9716;SDS011;4897;43.570;27.832;2023-05-07T03:07:06;10.68;;;3.40;;
9716;SDS011;4897;43.570;27.832;2023-05-07T03:09:33;13.13;;;3.60;;
9716;SDS011;4897;43.570;27.832;2023-05-07T03:12:00;7.65;;;5.45;;
9716;SDS011;4897;43.570;27.832;2023-05-07T03:14:30;6.30;;;4.97;;
9716;SDS011;4897;43.570;27.832;2023-05-07T03:16:56;11.57;;;4.03;;
9716;SDS011;4897;43.570;27.832;2023-05-07T03:19:23;11.20;;;3.55;;
9716;SDS011;4897;43.570;27.832;2023-05-07T03:21:52;12.98;;;3.47;;
9716;SDS011;4897;43.570;27.832;2023-05-07T03:24:18;6.90;;;4.20;;
9716;SDS011;4897;43.570;27.832;2023-05-07T03:26:45;11.40;;;8.05;;
9716;SDS011;4897;43.570;27.832;2023-05-07T03:29:15;21.02;;;12.20;;
9716;SDS011;4897;43.570;27.832;2023-05-07T03:31:41;10.00;;;6.68;;
9716;SDS011;4897;43.570;27.832;2023-05-07T03:34:08;18.63;;;12.65;;
9716;SDS011;4897;43.570;27.832;2023-05-07T03:36:35;15.45;;;9.40;;
9716;SDS011;4897;43.570;27.832;2023-05-07T03:39:06;21.35;;;15.77;;
9716;SDS011;4897;43.570;27.832;2023-05-07T03:41:35;20.95;;;12.63;;
9716;SDS011;4897;43.570;27.832;2023-05-07T03:44:02;15.50;;;10.25;;
9716;SDS011;4897;43.570;27.832;2023-05-07T03:46:29;19.75;;;9.45;;
9716;SDS011;4897;43.570;27.832;2023-05-07T03:48:57;10.98;;;7.05;;
9716;SDS011;4897;43.570;27.832;2023-05-07T03:51:24;13.70;;;6.70;;
9716;SDS011;4897;43.570;27.832;2023-05-07T03:53:51;10.38;;;5.97;;
9716;SDS011;4897;43.570;27.832;2023-05-07T03:56:20;8.32;;;5.13;;
9716;SDS011;4897;43.570;27.832;2023-05-07T03:58:47;8.23;;;2.80;;
9716;SDS011;4897;43.570;27.832;2023-05-07T04:01:14;5.07;;;2.50;;
9716;SDS011;4897;43.570;27.832;2023-05-07T04:03:44;9.70;;;4.32;;
9716;SDS011;4897;43.570;27.832;2023-05-07T04:06:11;7.25;;;3.25;;
9716;SDS011;4897;43.570;27.832;2023-05-07T04:08:37;41.42;;;6.10;;
9716;SDS011;4897;43.570;27.832;2023-05-07T04:11:04;7.63;;;3.47;;
9716;SDS011;4897;43.570;27.832;2023-05-07T04:13:33;5.82;;;3.35;;
9716;SDS011;4897;43.570;27.832;2023-05-07T04:16:01;8.60;;;3.10;;
9716;SDS011;4897;43.570;27.832;2023-05-07T04:18:28;7.82;;;3.10;;
9716;SDS011;4897;43.570;27.832;2023-05-07T04:20:55;5.43;;;2.95;;
9716;SDS011;4897;43.570;27.832;2023-05-07T04:23:22;4.68;;;2.70;;
9716;SDS011;4897;43.570;27.832;2023-05-07T04:25:50;7.38;;;3.15;;
9716;SDS011;4897;43.570;27.832;2023-05-07T04:28:17;8.52;;;2.65;;
9716;SDS011;4897;43.570;27.832;2023-05-07T04:30:45;5.45;;;2.70;;
9716;SDS011;4897;43.570;27.832;2023-05-07T04:33:13;4.82;;;2.92;;
9716;SDS011;4897;43.570;27.832;2023-05-07T04:35:41;3.85;;;2.75;;
9716;SDS011;4897;43.570;27.832;2023-05-07T04:38:08;6.05;;;2.65;;
9716;SDS011;4897;43.570;27.832;2023-05-07T04:40:36;5.10;;;2.53;;
9716;SDS011;4897;43.570;27.832;2023-05-07T04:43:07;5.15;;;2.80;;
9716;SDS011;4897;43.570;27.832;2023-05-07T04:45:34;5.57;;;2.80;;
9716;SDS011;4897;43.570;27.832;2023-05-07T04:48:03;4.15;;;2.47;;
9716;SDS011;4897;43.570;27.832;2023-05-07T04:50:30;7.75;;;2.40;;
9716;SDS011;4897;43.570;27.832;2023-05-07T04:52:57;8.07;;;2.95;;
9716;SDS011;4897;43.570;27.832;2023-05-07T04:55:24;4.20;;;2.80;;
9716;SDS011;4897;43.570;27.832;2023-05-07T04:57:51;4.82;;;2.97;;
9716;SDS011;4897;43.570;27.832;2023-05-07T05:00:19;6.00;;;3.05;;
9716;SDS011;4897;43.570;27.832;2023-05-07T05:02:46;6.25;;;2.50;;
9716;SDS011;4897;43.570;27.832;2023-05-07T05:05:14;4.40;;;2.67;;
9716;SDS011;4897;43.570;27.832;2023-05-07T05:07:41;3.35;;;2.40;;
9716;SDS011;4897;43.570;27.832;2023-05-07T05:10:08;5.15;;;2.50;;
9716;SDS011;4897;43.570;27.832;2023-05-07T05:12:35;6.72;;;2.88;;
9716;SDS011;4897;43.570;27.832;2023-05-07T05:15:03;10.85;;;2.30;;
9716;SDS011;4897;43.570;27.832;2023-05-07T05:17:30;3.95;;;2.20;;
9716;SDS011;4897;43.570;27.832;2023-05-07T05:20:02;8.05;;;2.85;;
9716;SDS011;4897;43.570;27.832;2023-05-07T05:22:37;7.13;;;2.35;;
9716;SDS011;4897;43.570;27.832;2023-05-07T05:25:04;4.63;;;2.05;;
9716;SDS011;4897;43.570;27.832;2023-05-07T05:27:31;2.75;;;2.00;;
9716;SDS011;4897;43.570;27.832;2023-05-07T05:29:58;4.05;;;1.92;;
9716;SDS011;4897;43.570;27.832;2023-05-07T05:32:25;10.05;;;1.90;;
9716;SDS011;4897;43.570;27.832;2023-05-07T05:34:52;5.38;;;2.00;;
9716;SDS011;4897;43.570;27.832;2023-05-07T05:37:18;3.65;;;1.90;;
9716;SDS011;4897;43.570;27.832;2023-05-07T05:39:47;2.60;;;1.60;;
9716;SDS011;4897;43.570;27.832;2023-05-07T05:42:16;7.97;;;1.95;;
9716;SDS011;4897;43.570;27.832;2023-05-07T05:44:46;4.13;;;1.75;;
9716;SDS011;4897;43.570;27.832;2023-05-07T05:47:13;3.17;;;1.77;;
9716;SDS011;4897;43.570;27.832;2023-05-07T05:49:40;7.15;;;2.03;;
9716;SDS011;4897;43.570;27.832;2023-05-07T05:52:08;3.17;;;1.90;;
9716;SDS011;4897;43.570;27.832;2023-05-07T05:54:36;3.65;;;2.10;;
9716;SDS011;4897;43.570;27.832;2023-05-07T05:57:05;3.60;;;1.80;;
9716;SDS011;4897;43.570;27.832;2023-05-07T05:59:32;2.67;;;1.98;;
9716;SDS011;4897;43.570;27.832;2023-05-07T06:01:58;3.70;;;2.00;;
9716;SDS011;4897;43.570;27.832;2023-05-07T06:04:25;5.95;;;2.08;;
9716;SDS011;4897;43.570;27.832;2023-05-07T06:06:52;6.28;;;1.83;;
9716;SDS011;4897;43.570;27.832;2023-05-07T06:09:19;18.27;;;10.00;;
9716;SDS011;4897;43.570;27.832;2023-05-07T06:11:46;5.53;;;2.60;;
9716;SDS011;4897;43.570;27.832;2023-05-07T06:14:14;3.50;;;2.03;;
9716;SDS011;4897;43.570;27.832;2023-05-07T06:16:41;4.93;;;1.98;;
9716;SDS011;4897;43.570;27.832;2023-05-07T06:19:08;3.13;;;1.92;;
9716;SDS011;4897;43.570;27.832;2023-05-07T06:21:35;7.05;;;1.95;;
9716;SDS011;4897;43.570;27.832;2023-05-07T06:24:02;10.18;;;2.35;;
9716;SDS011;4897;43.570;27.832;2023-05-07T06:26:29;3.97;;;1.95;;
9716;SDS011;4897;43.570;27.832;2023-05-07T06:28:58;3.00;;;1.90;;
9716;SDS011;4897;43.570;27.832;2023-05-07T06:31:28;3.38;;;2.20;;
9716;SDS011;4897;43.570;27.832;2023-05-07T06:33:56;7.88;;;2.25;;
9716;SDS011;4897;43.570;27.832;2023-05-07T06:36:24;4.53;;;2.00;;
9716;SDS011;4897;43.570;27.832;2023-05-07T06:38:53;3.45;;;1.90;;
9716;SDS011;4897;43.570;27.832;2023-05-07T06:41:25;5.55;;;2.20;;
9716;SDS011;4897;43.570;27.832;2023-05-07T06:43:52;2.50;;;1.67;;
9716;SDS011;4897;43.570;27.832;2023-05-07T06:46:19;3.40;;;1.95;;
9716;SDS011;4897;43.570;27.832;2023-05-07T06:48:47;2.20;;;1.63;;
9716;SDS011;4897;43.570;27.832;2023-05-07T06:51:14;8.57;;;2.30;;
9716;SDS011;4897;43.570;27.832;2023-05-07T06:53:41;3.60;;;2.08;;
9716;SDS011;4897;43.570;27.832;2023-05-07T06:56:08;5.38;;;1.92;;
9716;SDS011;4897;43.570;27.832;2023-05-07T06:58:37;5.60;;;1.60;;
9716;SDS011;4897;43.570;27.832;2023-05-07T07:01:04;4.85;;;2.10;;
9716;SDS011;4897;43.570;27.832;2023-05-07T07:03:31;7.35;;;1.98;;
9716;SDS011;4897;43.570;27.832;2023-05-07T07:05:59;2.63;;;1.90;;
9716;SDS011;4897;43.570;27.832;2023-05-07T07:08:27;3.95;;;1.92;;
9716;SDS011;4897;43.570;27.832;2023-05-07T07:10:54;2.10;;;1.55;;
9716;SDS011;4897;43.570;27.832;2023-05-07T07:13:23;3.38;;;1.83;;
9716;SDS011;4897;43.570;27.832;2023-05-07T07:15:51;8.18;;;2.00;;
9716;SDS011;4897;43.570;27.832;2023-05-07T07:18:18;4.03;;;1.80;;
9716;SDS011;4897;43.570;27.832;2023-05-07T07:20:45;3.63;;;2.20;;
9716;SDS011;4897;43.570;27.832;2023-05-07T07:23:13;2.45;;;1.80;;
9716;SDS011;4897;43.570;27.832;2023-05-07T07:25:40;4.18;;;1.95;;
9716;SDS011;4897;43.570;27.832;2023-05-07T07:28:07;2.92;;;1.98;;
9716;SDS011;4897;43.570;27.832;2023-05-07T07:30:35;5.80;;;1.65;;
9716;SDS011;4897;43.570;27.832;2023-05-07T07:33:02;2.35;;;1.75;;
9716;SDS011;4897;43.570;27.832;2023-05-07T07:35:30;6.70;;;1.60;;
9716;SDS011;4897;43.570;27.832;2023-05-07T07:37:57;4.05;;;2.15;;
9716;SDS011;4897;43.570;27.832;2023-05-07T07:40:26;3.63;;;1.88;;
9716;SDS011;4897;43.570;27.832;2023-05-07T07:42:53;5.50;;;1.90;;
9716;SDS011;4897;43.570;27.832;2023-05-07T07:45:20;4.32;;;2.00;;
9716;SDS011;4897;43.570;27.832;2023-05-07T07:47:47;4.03;;;1.60;;
9716;SDS011;4897;43.570;27.832;2023-05-07T07:50:14;3.47;;;1.52;;
9716;SDS011;4897;43.570;27.832;2023-05-07T07:52:41;3.95;;;1.63;;
9716;SDS011;4897;43.570;27.832;2023-05-07T07:55:11;3.85;;;1.70;;
9716;SDS011;4897;43.570;27.832;2023-05-07T07:57:40;4.30;;;1.67;;
9716;SDS011;4897;43.570;27.832;2023-05-07T08:00:07;7.28;;;1.95;;
9716;SDS011;4897;43.570;27.832;2023-05-07T08:02:37;1.65;;;1.50;;
9716;SDS011;4897;43.570;27.832;2023-05-07T08:05:04;3.80;;;1.80;;
9716;SDS011;4897;43.570;27.832;2023-05-07T08:07:32;1.88;;;1.40;;
9716;SDS011;4897;43.570;27.832;2023-05-07T08:09:59;3.33;;;1.40;;
9716;SDS011;4897;43.570;27.832;2023-05-07T08:12:26;2.00;;;1.50;;
9716;SDS011;4897;43.570;27.832;2023-05-07T08:14:54;6.53;;;1.77;;
9716;SDS011;4897;43.570;27.832;2023-05-07T08:17:23;2.42;;;1.45;;
9716;SDS011;4897;43.570;27.832;2023-05-07T08:19:50;2.58;;;1.60;;
9716;SDS011;4897;43.570;27.832;2023-05-07T08:22:17;3.67;;;1.70;;
9716;SDS011;4897;43.570;27.832;2023-05-07T08:24:48;2.53;;;1.63;;
9716;SDS011;4897;43.570;27.832;2023-05-07T08:27:14;3.53;;;1.67;;
9716;SDS011;4897;43.570;27.832;2023-05-07T08:29:41;2.05;;;1.40;;
9716;SDS011;4897;43.570;27.832;2023-05-07T08:32:13;1.98;;;1.27;;
9716;SDS011;4897;43.570;27.832;2023-05-07T08:34:40;2.80;;;1.60;;
9716;SDS011;4897;43.570;27.832;2023-05-07T08:37:07;1.63;;;1.40;;
9716;SDS011;4897;43.570;27.832;2023-05-07T08:39:34;3.13;;;1.40;;
9716;SDS011;4897;43.570;27.832;2023-05-07T08:42:01;6.88;;;1.55;;
9716;SDS011;4897;43.570;27.832;2023-05-07T08:44:32;2.72;;;1.75;;
9716;SDS011;4897;43.570;27.832;2023-05-07T08:47:01;2.65;;;1.60;;
9716;SDS011;4897;43.570;27.832;2023-05-07T08:49:30;2.78;;;1.75;;
9716;SDS011;4897;43.570;27.832;2023-05-07T08:51:57;2.47;;;1.40;;
9716;SDS011;4897;43.570;27.832;2023-05-07T08:54:24;2.70;;;1.35;;
9716;SDS011;4897;43.570;27.832;2023-05-07T08:56:52;1.55;;;1.40;;
9716;SDS011;4897;43.570;27.832;2023-05-07T08:59:19;5.32;;;1.60;;
9716;SDS011;4897;43.570;27.832;2023-05-07T09:01:46;4.45;;;1.73;;
9716;SDS011;4897;43.570;27.832;2023-05-07T09:04:13;1.98;;;1.50;;
9716;SDS011;4897;43.570;27.832;2023-05-07T09:06:41;2.15;;;1.60;;
9716;SDS011;4897;43.570;27.832;2023-05-07T09:09:08;1.88;;;1.23;;
9716;SDS011;4897;43.570;27.832;2023-05-07T09:11:35;4.82;;;1.50;;
9716;SDS011;4897;43.570;27.832;2023-05-07T09:14:02;21.75;;;1.52;;
9716;SDS011;4897;43.570;27.832;2023-05-07T09:16:29;2.38;;;1.75;;
9716;SDS011;4897;43.570;27.832;2023-05-07T09:18:58;2.65;;;1.50;;
9716;SDS011;4897;43.570;27.832;2023-05-07T09:21:26;3.00;;;1.55;;
9716;SDS011;4897;43.570;27.832;2023-05-07T09:23:58;5.53;;;1.42;;
9716;SDS011;4897;43.570;27.832;2023-05-07T09:26:25;2.00;;;1.50;;
9716;SDS011;4897;43.570;27.832;2023-05-07T09:28:53;2.10;;;1.50;;
9716;SDS011;4897;43.570;27.832;2023-05-07T09:31:20;4.72;;;1.85;;
9716;SDS011;4897;43.570;27.832;2023-05-07T09:33:48;1.80;;;1.40;;
9716;SDS011;4897;43.570;27.832;2023-05-07T09:36:15;2.53;;;1.60;;
9716;SDS011;4897;43.570;27.832;2023-05-07T09:38:42;3.72;;;1.55;;
9716;SDS011;4897;43.570;27.832;2023-05-07T09:41:12;3.60;;;1.67;;
9716;SDS011;4897;43.570;27.832;2023-05-07T09:43:40;2.00;;;1.30;;
9716;SDS011;4897;43.570;27.832;2023-05-07T09:46:07;2.78;;;1.42;;
9716;SDS011;4897;43.570;27.832;2023-05-07T09:48:38;4.28;;;1.33;;
9716;SDS011;4897;43.570;27.832;2023-05-07T09:51:11;2.65;;;1.63;;
9716;SDS011;4897;43.570;27.832;2023-05-07T09:53:45;2.67;;;1.65;;
9716;SDS011;4897;43.570;27.832;2023-05-07T09:56:14;4.00;;;1.58;;
9716;SDS011;4897;43.570;27.832;2023-05-07T09:58:41;2.25;;;1.60;;
9716;SDS011;4897;43.570;27.832;2023-05-07T10:01:10;4.93;;;1.77;;
9716;SDS011;4897;43.570;27.832;2023-05-07T10:03:38;2.50;;;1.40;;
9716;SDS011;4897;43.570;27.832;2023-05-07T10:06:07;1.58;;;1.40;;
9716;SDS011;4897;43.570;27.832;2023-05-07T10:08:35;4.88;;;1.50;;
9716;SDS011;4897;43.570;27.832;2023-05-07T10:11:03;2.55;;;1.40;;
9716;SDS011;4897;43.570;27.832;2023-05-07T10:13:31;1.67;;;1.40;;
9716;SDS011;4897;43.570;27.832;2023-05-07T10:16:03;3.47;;;1.50;;
9716;SDS011;4897;43.570;27.832;2023-05-07T10:18:31;2.97;;;1.40;;
9716;SDS011;4897;43.570;27.832;2023-05-07T10:21:01;4.43;;;1.58;;
9716;SDS011;4897;43.570;27.832;2023-05-07T10:23:33;4.03;;;1.50;;
9716;SDS011;4897;43.570;27.832;2023-05-07T10:26:00;3.47;;;1.60;;
9716;SDS011;4897;43.570;27.832;2023-05-07T10:28:33;2.40;;;1.48;;
9716;SDS011;4897;43.570;27.832;2023-05-07T10:31:12;2.45;;;1.58;;
9716;SDS011;4897;43.570;27.832;2023-05-07T10:33:49;7.38;;;1.50;;
9716;SDS011;4897;43.570;27.832;2023-05-07T10:36:18;1.95;;;1.27;;
9716;SDS011;4897;43.570;27.832;2023-05-07T10:38:46;2.90;;;1.55;;
9716;SDS011;4897;43.570;27.832;2023-05-07T10:41:13;2.88;;;1.70;;
9716;SDS011;4897;43.570;27.832;2023-05-07T10:43:43;5.18;;;1.70;;
9716;SDS011;4897;43.570;27.832;2023-05-07T10:46:15;2.15;;;1.30;;
9716;SDS011;4897;43.570;27.832;2023-05-07T10:51:36;2.55;;;1.60;;
9716;SDS011;4897;43.570;27.832;2023-05-07T10:54:19;1.98;;;1.30;;
9716;SDS011;4897;43.570;27.832;2023-05-07T10:56:47;1.80;;;1.33;;
9716;SDS011;4897;43.570;27.832;2023-05-07T10:59:36;1.95;;;1.58;;
9716;SDS011;4897;43.570;27.832;2023-05-07T11:02:11;1.45;;;1.35;;
9716;SDS011;4897;43.570;27.832;2023-05-07T11:04:40;2.65;;;1.33;;
9716;SDS011;4897;43.570;27.832;2023-05-07T11:09:56;3.80;;;1.40;;
9716;SDS011;4897;43.570;27.832;2023-05-07T11:15:37;2.97;;;1.40;;
9716;SDS011;4897;43.570;27.832;2023-05-07T11:18:09;3.90;;;1.40;;
9716;SDS011;4897;43.570;27.832;2023-05-07T11:20:50;1.70;;;1.35;;
9716;SDS011;4897;43.570;27.832;2023-05-07T11:26:42;3.55;;;1.70;;
9716;SDS011;4897;43.570;27.832;2023-05-07T11:29:16;5.28;;;1.80;;
9716;SDS011;4897;43.570;27.832;2023-05-07T11:31:45;3.67;;;1.40;;
9716;SDS011;4897;43.570;27.832;2023-05-07T11:34:15;3.70;;;1.50;;
9716;SDS011;4897;43.570;27.832;2023-05-07T11:36:50;2.00;;;1.40;;
9716;SDS011;4897;43.570;27.832;2023-05-07T11:39:26;3.60;;;1.45;;
9716;SDS011;4897;43.570;27.832;2023-05-07T11:41:54;1.90;;;1.50;;
9716;SDS011;4897;43.570;27.832;2023-05-07T11:44:21;1.60;;;1.30;;
9716;SDS011;4897;43.570;27.832;2023-05-07T11:46:49;1.80;;;1.40;;
9716;SDS011;4897;43.570;27.832;2023-05-07T11:49:16;1.65;;;1.50;;
9716;SDS011;4897;43.570;27.832;2023-05-07T11:51:44;2.65;;;1.73;;
9716;SDS011;4897;43.570;27.832;2023-05-07T11:54:11;2.67;;;1.50;;
9716;SDS011;4897;43.570;27.832;2023-05-07T11:56:43;5.40;;;1.50;;
9716;SDS011;4897;43.570;27.832;2023-05-07T11:59:10;2.60;;;1.40;;
9716;SDS011;4897;43.570;27.832;2023-05-07T12:01:37;5.03;;;1.52;;
9716;SDS011;4897;43.570;27.832;2023-05-07T12:04:06;2.22;;;1.23;;
9716;SDS011;4897;43.570;27.832;2023-05-07T12:06:35;1.80;;;1.52;;
9716;SDS011;4897;43.570;27.832;2023-05-07T12:09:04;2.38;;;1.38;;
9716;SDS011;4897;43.570;27.832;2023-05-07T12:11:32;2.65;;;1.40;;
9716;SDS011;4897;43.570;27.832;2023-05-07T12:13:59;1.95;;;1.30;;
9716;SDS011;4897;43.570;27.832;2023-05-07T12:16:26;1.75;;;1.35;;
9716;SDS011;4897;43.570;27.832;2023-05-07T12:18:53;2.90;;;1.60;;
9716;SDS011;4897;43.570;27.832;2023-05-07T12:21:22;3.38;;;1.35;;
9716;SDS011;4897;43.570;27.832;2023-05-07T12:23:50;4.15;;;1.30;;
9716;SDS011;4897;43.570;27.832;2023-05-07T12:26:18;2.63;;;1.30;;
9716;SDS011;4897;43.570;27.832;2023-05-07T12:28:46;1.98;;;1.40;;
9716;SDS011;4897;43.570;27.832;2023-05-07T12:31:13;2.90;;;1.52;;
9716;SDS011;4897;43.570;27.832;2023-05-07T12:33:40;1.75;;;1.50;;
9716;SDS011;4897;43.570;27.832;2023-05-07T12:36:08;2.38;;;1.60;;
9716;SDS011;4897;43.570;27.832;2023-05-07T12:38:37;2.47;;;1.70;;
9716;SDS011;4897;43.570;27.832;2023-05-07T12:41:08;1.95;;;1.35;;
9716;SDS011;4897;43.570;27.832;2023-05-07T12:43:37;3.47;;;1.50;;
9716;SDS011;4897;43.570;27.832;2023-05-07T12:46:05;1.80;;;1.48;;
9716;SDS011;4897;43.570;27.832;2023-05-07T12:48:41;3.63;;;1.27;;
9716;SDS011;4897;43.570;27.832;2023-05-07T12:51:10;1.83;;;1.60;;
9716;SDS011;4897;43.570;27.832;2023-05-07T12:53:42;3.08;;;1.50;;
9716;SDS011;4897;43.570;27.832;2023-05-07T12:56:12;3.53;;;1.35;;
9716;SDS011;4897;43.570;27.832;2023-05-07T12:58:42;4.35;;;1.50;;
9716;SDS011;4897;43.570;27.832;2023-05-07T13:01:09;3.25;;;1.50;;
9716;SDS011;4897;43.570;27.832;2023-05-07T13:03:40;1.65;;;1.40;;
9716;SDS011;4897;43.570;27.832;2023-05-07T13:06:07;1.38;;;1.20;;
9716;SDS011;4897;43.570;27.832;2023-05-07T13:08:38;2.45;;;1.42;;
9716;SDS011;4897;43.570;27.832;2023-05-07T13:11:09;2.75;;;1.30;;
9716;SDS011;4897;43.570;27.832;2023-05-07T13:13:37;3.90;;;1.70;;
9716;SDS011;4897;43.570;27.832;2023-05-07T13:16:07;1.80;;;1.50;;
9716;SDS011;4897;43.570;27.832;2023-05-07T13:18:35;2.20;;;1.52;;
9716;SDS011;4897;43.570;27.832;2023-05-07T13:21:02;3.13;;;1.55;;
9716;SDS011;4897;43.570;27.832;2023-05-07T13:23:30;2.08;;;1.40;;
9716;SDS011;4897;43.570;27.832;2023-05-07T13:25:57;2.35;;;1.40;;
9716;SDS011;4897;43.570;27.832;2023-05-07T13:28:25;3.63;;;1.48;;
9716;SDS011;4897;43.570;27.832;2023-05-07T13:30:52;2.85;;;1.45;;
9716;SDS011;4897;43.570;27.832;2023-05-07T13:33:19;4.00;;;1.40;;
9716;SDS011;4897;43.570;27.832;2023-05-07T13:35:46;2.10;;;1.10;;
9716;SDS011;4897;43.570;27.832;2023-05-07T13:38:13;2.97;;;1.40;;
9716;SDS011;4897;43.570;27.832;2023-05-07T13:40:41;2.03;;;1.40;;
9716;SDS011;4897;43.570;27.832;2023-05-07T13:43:08;1.33;;;1.10;;
9716;SDS011;4897;43.570;27.832;2023-05-07T13:45:37;3.60;;;1.50;;
9716;SDS011;4897;43.570;27.832;2023-05-07T13:48:04;2.72;;;1.48;;
9716;SDS011;4897;43.570;27.832;2023-05-07T13:50:31;1.77;;;1.35;;
9716;SDS011;4897;43.570;27.832;2023-05-07T13:52:57;2.67;;;1.60;;
9716;SDS011;4897;43.570;27.832;2023-05-07T13:55:24;1.98;;;1.33;;
9716;SDS011;4897;43.570;27.832;2023-05-07T13:57:55;2.45;;;1.50;;
9716;SDS011;4897;43.570;27.832;2023-05-07T14:00:23;3.60;;;1.48;;
9716;SDS011;4897;43.570;27.832;2023-05-07T14:02:52;1.42;;;1.30;;
9716;SDS011;4897;43.570;27.832;2023-05-07T14:05:19;2.10;;;1.58;;
9716;SDS011;4897;43.570;27.832;2023-05-07T14:07:48;3.03;;;1.10;;
9716;SDS011;4897;43.570;27.832;2023-05-07T14:10:16;2.05;;;1.30;;
9716;SDS011;4897;43.570;27.832;2023-05-07T14:12:46;2.80;;;1.35;;
9716;SDS011;4897;43.570;27.832;2023-05-07T14:15:13;5.60;;;1.63;;
9716;SDS011;4897;43.570;27.832;2023-05-07T14:17:41;5.22;;;1.60;;
9716;SDS011;4897;43.570;27.832;2023-05-07T14:20:10;2.25;;;1.60;;
9716;SDS011;4897;43.570;27.832;2023-05-07T14:22:39;3.63;;;1.45;;
9716;SDS011;4897;43.570;27.832;2023-05-07T14:25:07;1.88;;;1.50;;
9716;SDS011;4897;43.570;27.832;2023-05-07T14:27:34;2.50;;;1.50;;
9716;SDS011;4897;43.570;27.832;2023-05-07T14:30:01;1.60;;;1.50;;
9716;SDS011;4897;43.570;27.832;2023-05-07T14:32:28;1.50;;;1.40;;
9716;SDS011;4897;43.570;27.832;2023-05-07T14:34:55;2.47;;;1.70;;
9716;SDS011;4897;43.570;27.832;2023-05-07T14:37:23;3.58;;;1.80;;
9716;SDS011;4897;43.570;27.832;2023-05-07T14:39:50;3.72;;;2.22;;
9716;SDS011;4897;43.570;27.832;2023-05-07T14:42:17;6.63;;;2.03;;
9716;SDS011;4897;43.570;27.832;2023-05-07T14:44:46;5.00;;;2.00;;
9716;SDS011;4897;43.570;27.832;2023-05-07T14:47:13;3.30;;;1.73;;
9716;SDS011;4897;43.570;27.832;2023-05-07T14:49:42;7.00;;;1.73;;
9716;SDS011;4897;43.570;27.832;2023-05-07T14:52:09;3.70;;;2.10;;
9716;SDS011;4897;43.570;27.832;2023-05-07T14:54:37;4.82;;;2.20;;
9716;SDS011;4897;43.570;27.832;2023-05-07T14:57:05;5.25;;;2.30;;
9716;SDS011;4897;43.570;27.832;2023-05-07T14:59:32;7.30;;;1.98;;
9716;SDS011;4897;43.570;27.832;2023-05-07T15:02:00;3.10;;;1.80;;
9716;SDS011;4897;43.570;27.832;2023-05-07T15:04:27;8.60;;;2.22;;
9716;SDS011;4897;43.570;27.832;2023-05-07T15:06:54;4.20;;;2.17;;
9716;SDS011;4897;43.570;27.832;2023-05-07T15:09:21;4.35;;;1.90;;
9716;SDS011;4897;43.570;27.832;2023-05-07T15:11:49;3.35;;;2.10;;
9716;SDS011;4897;43.570;27.832;2023-05-07T15:14:16;2.95;;;2.00;;
9716;SDS011;4897;43.570;27.832;2023-05-07T15:16:43;8.98;;;2.40;;
9716;SDS011;4897;43.570;27.832;2023-05-07T15:19:10;4.25;;;2.40;;
9716;SDS011;4897;43.570;27.832;2023-05-07T15:21:40;3.58;;;2.10;;